Gumushane, Turkey

8:49 AM EEST on March 30, 2015 (GMT +0300)
Erzincan | | Change Station
CLOSE
Current Station
Airport
Location: Erzincan,
Elevation: 3786 ft
Nearby Weather Stations

Elev 3786 ft 39.71 °N, 39.53 °E | Updated 59 minutes ago

Mostly Cloudy
Mostly Cloudy
41 °F
Feels Like 38 °F
N
5
Wind Variable Wind from NNE

Today
High -- | Low -- °F
--% Chance of Precip.
Yesterday
High -- | Low -- °F
Precip. -- in
6:10 AM 6:44 PM
Waxing Gibbous, 77% visible
Pressure 29.77 in
Visibility 6.2 miles
Clouds Few 1200 ft
Scattered Clouds 2800 ft
Mostly Cloudy 8000 ft
Windchill 38 °F
Dew Point 37 °F
Humidity 87%
Rainfall 0.00 in
Snow Depth Not available.
UV 1 out of 12
Pollen Not available.
Air Quality Not available.
Flu Activity Not available.
METAR LTCD 300450Z 02004KT 9999 FEW012 SCT028 BKN080 05/03 Q1008 NOSIG

More Conditions Fewer Conditions

Pressure 29.77 in
Visibility 6.2 miles
Clouds Few 1200 ft
Scattered Clouds 2800 ft
Mostly Cloudy 8000 ft
Windchill 38 °F
Dew Point 37 °F
Humidity 87%
Rainfall 0.00 in
Snow Depth Not available.
UV 1 out of 12
Pollen Not available.
Air Quality Not available.
Flu Activity Not available.
METAR LTCD 300450Z 02004KT 9999 FEW012 SCT028 BKN080 05/03 Q1008 NOSIG

More Conditions Fewer Conditions

10-Day Weather Forecast

Almanac

Astronomy

Mar. 30, 2015 Rise Set
Actual Time
Civil Twilight
Nautical Twilight
Astronomical Twilight
Moon
Length of Visible Light
Length of Day
Tomorrow will be .
, % of the Moon is Illuminated

Today's Extremes

Country Highs Country Lows

Community

WunderPhotos

Upload Photos

1,809,437 photos uploaded!

WunderBlogs® & News

Nearby

Air Quality

  Air Quality AQ Index Pollutant
Not available.

Snow Depth

Station Depth Elevation

Earthquake Activity

City Distance Mag. Time & Date
Minimum magnitude displayed is 2.5.

Coastal Water Temperatures

Place Temperature

Stations

Nearby Weather Stations

Station Location Temp. Windchill Dew Point Humidity Wind Precip. Elev Updated Type